Time;durP1;ratioP1;P1;durP2;ratioP2;P2;SDS_P1;SDS_P2;PMS_P1;PMS_P2;Temp;Humidity;BMP_temperature;BMP_pressure;BME280_temperature;BME280_humidity;BME280_pressure;Samples;Min_cycle;Max_cycle;Signal;HPM_P1;HPM_P2
2023/05/09 00:00:01;;;;;;;509.60;122.27;;;;;;;12.02;69.59;101895.13;5011868;28;20384;-87
2023/05/09 00:02:28;;;;;;;515.53;123.22;;;;;;;11.95;69.85;101888.75;5012029;28;20376;-86
2023/05/09 00:04:54;;;;;;;518.03;123.97;;;;;;;11.99;69.94;101883.97;5012571;28;20404;-86
2023/05/09 00:07:20;;;;;;;517.97;123.38;;;;;;;12.07;69.33;101899.19;5014106;28;20443;-86
2023/05/09 00:09:45;;;;;;;524.90;124.85;;;;;;;12.03;69.36;101882.72;5015730;28;20402;-85
2023/05/09 00:12:11;;;;;;;526.97;125.20;;;;;;;11.82;69.75;101890.91;5014787;28;20788;-84
2023/05/09 00:14:39;;;;;;;533.83;126.70;;;;;;;11.74;69.98;101890.81;5013682;28;20460;-84
2023/05/09 00:17:05;;;;;;;531.95;125.97;;;;;;;11.73;70.13;101895.31;5014453;28;20883;-83
2023/05/09 00:19:31;;;;;;;480.45;117.85;;;;;;;11.55;70.40;101886.47;5014092;28;20395;-83
2023/05/09 00:21:56;;;;;;;518.38;123.70;;;;;;;11.54;70.61;101890.94;5012596;28;20414;-82
2023/05/09 00:24:22;;;;;;;517.70;124.13;;;;;;;11.37;70.98;101889.88;5013446;28;20408;-82
2023/05/09 00:26:47;;;;;;;533.03;126.10;;;;;;;11.46;70.66;101885.50;5013862;28;20396;-82
2023/05/09 00:29:12;;;;;;;510.38;122.45;;;;;;;11.54;70.37;101888.28;5014417;28;20409;-81
2023/05/09 00:31:38;;;;;;;531.27;125.90;;;;;;;11.52;70.37;101878.78;5012533;28;20407;-82
2023/05/09 00:34:03;;;;;;;534.20;126.55;;;;;;;11.59;69.84;101878.03;5011772;28;20400;-81
2023/05/09 00:36:29;;;;;;;542.53;128.03;;;;;;;11.54;70.44;101887.44;5015057;28;20395;-82
2023/05/09 00:38:54;;;;;;;539.43;128.17;;;;;;;11.65;70.00;101890.72;5014746;28;20423;-82
2023/05/09 00:41:20;;;;;;;552.03;130.65;;;;;;;11.60;70.13;101887.69;5007951;28;20400;-82
2023/05/09 00:43:45;;;;;;;549.63;129.50;;;;;;;11.37;70.66;101887.22;5017853;28;20459;-81
2023/05/09 00:46:11;;;;;;;554.47;130.83;;;;;;;11.55;70.18;101889.09;4998984;28;21006;-81
2023/05/09 00:48:36;;;;;;;563.90;132.57;;;;;;;11.43;70.78;101891.97;4999790;28;20425;-81
2023/05/09 00:51:03;;;;;;;588.23;137.83;;;;;;;11.62;70.32;101891.03;5013461;28;20409;-81
2023/05/09 00:53:29;;;;;;;592.08;138.40;;;;;;;11.75;69.67;101895.97;5004076;28;20424;-81
2023/05/09 00:55:56;;;;;;;581.42;136.05;;;;;;;11.70;69.87;101900.91;5015284;28;20397;-81
2023/05/09 00:58:22;;;;;;;590.03;138.00;;;;;;;11.78;69.41;101895.69;5005215;28;20972;-81
2023/05/09 01:00:48;;;;;;;577.78;135.23;;;;;;;11.84;69.26;101895.09;5001416;28;20535;-81
2023/05/09 01:03:13;;;;;;;589.60;137.47;;;;;;;11.90;69.21;101893.69;5003759;28;20442;-81
2023/05/09 01:05:57;;;;;;;602.57;140.23;;;;;;;12.02;68.80;101895.13;5008219;28;20409;-83
2023/05/09 01:08:53;;;;;;;609.00;141.80;;;;;;;12.12;68.55;101891.56;5028166;28;20407;-82
2023/05/09 01:11:33;;;;;;;599.10;138.82;;;;;;;12.18;68.57;101901.63;5012764;28;20391;-81
2023/05/09 01:14:13;;;;;;;603.75;140.52;;;;;;;12.21;68.52;101896.84;5014032;28;20883;-81
2023/05/09 01:16:55;;;;;;;611.28;141.68;;;;;;;12.25;68.40;101902.69;5011870;28;20481;-82
2023/05/09 01:19:52;;;;;;;615.15;142.68;;;;;;;11.99;68.80;101903.44;5016765;28;20406;-82
2023/05/09 01:22:23;;;;;;;617.97;143.60;;;;;;;11.92;69.05;101905.03;5015920;28;20442;-83
2023/05/09 01:25:06;;;;;;;604.42;140.38;;;;;;;11.83;69.52;101922.66;5013343;28;20426;-84
2023/05/09 01:27:50;;;;;;;608.53;141.27;;;;;;;11.82;69.30;101912.16;5015252;28;20383;-84
2023/05/09 01:30:17;;;;;;;616.72;143.20;;;;;;;11.79;69.35;101915.97;5014102;28;20445;-83
2023/05/09 01:32:46;;;;;;;622.80;144.20;;;;;;;11.59;70.03;101903.75;5014832;28;20776;-84
2023/05/09 01:35:13;;;;;;;619.97;144.32;;;;;;;11.73;69.64;101905.09;5014416;28;20441;-83
2023/05/09 01:37:41;;;;;;;628.83;145.90;;;;;;;11.81;69.24;101905.16;5014242;28;20725;-83
2023/05/09 01:40:13;;;;;;;630.63;145.88;;;;;;;11.70;69.40;101910.69;5013071;28;20383;-83
2023/05/09 01:42:43;;;;;;;634.22;146.27;;;;;;;11.72;69.22;101917.56;5014114;28;20400;-83
2023/05/09 01:45:11;;;;;;;628.95;145.73;;;;;;;11.69;69.34;101909.03;5014646;28;20915;-82
2023/05/09 01:47:38;;;;;;;645.80;148.80;;;;;;;11.59;69.53;101914.38;5013533;28;20380;-82
2023/05/09 01:50:05;;;;;;;662.88;152.63;;;;;;;11.62;69.55;101912.25;5013767;28;20403;-81
2023/05/09 01:52:31;;;;;;;668.85;153.52;;;;;;;11.66;69.15;101910.97;5013645;28;20404;-82
2023/05/09 01:55:00;;;;;;;670.17;153.85;;;;;;;11.51;69.48;101909.81;5013990;28;20404;-82
2023/05/09 01:57:28;;;;;;;688.65;157.77;;;;;;;11.72;69.18;101906.94;5014167;28;20380;-82
2023/05/09 01:59:54;;;;;;;692.10;158.65;;;;;;;11.75;68.83;101914.56;5017728;28;20387;-82
2023/05/09 02:02:20;;;;;;;722.58;165.10;;;;;;;11.80;68.93;101911.50;5016217;28;20837;-83
2023/05/09 02:04:47;;;;;;;786.80;182.43;;;;;;;11.88;68.51;101921.38;5017229;28;20926;-82
2023/05/09 02:07:14;;;;;;;1319.60;351.13;;;;;;;11.72;69.13;101912.25;5017647;28;20376;-82
2023/05/09 02:09:39;;;;;;;1389.53;377.65;;;;;;;11.76;69.10;101918.91;5017434;28;20746;-83
2023/05/09 02:12:06;;;;;;;1458.57;399.67;;;;;;;11.72;69.10;101906.94;5019596;28;20614;-85
2023/05/09 02:14:31;;;;;;;1662.78;501.55;;;;;;;11.81;68.65;101911.34;5020835;28;20372;-87
2023/05/09 02:17:04;;;;;;;1285.77;334.47;;;;;;;11.78;69.00;101916.13;5023658;28;20384;-86
2023/05/09 02:19:34;;;;;;;1592.20;456.70;;;;;;;11.74;69.35;101928.00;5018998;28;20459;-85
2023/05/09 02:22:00;;;;;;;1646.25;487.63;;;;;;;11.79;69.32;101931.91;5019231;28;20428;-85
2023/05/09 02:24:26;;;;;;;1712.10;523.80;;;;;;;11.60;69.52;101916.91;5019254;28;20412;-86
